Portada
METAR-TAF:

METAR-TAF

Aeropuertos :

Seyresse

Dax, Francia

latitud: 43-41N, longitud: 001-04W, altitud: 32 m

Observación

El informe se hizo hace 18 minutos, a las 01:00 UTC
Viento 3 kt del este
Temperatura 8°C
Humedad 87%
Presión 1023 hPa
Visibilidad: 6000 m

METAR: LFBY 020100Z AUTO 10003KT 6000 // ////// 08/06 Q1023

Hora: 02:18 (01:18 UTC)

Pronóstico

El informe se hizo hace 17 horas y 18 minutos, a las 08:00 UTC
Pronóstico válido del 01 a las 09 UTC al 01 a las 18 UTC
Viento 5 kt del este-noreste
Visibilidad 10 km o más
sin nubes por debajo de 1500 m y sin presencia de cumulonimbus.
Probabilidad 30% :
Temporalmente
del 01 a las 14 UTC al 01 a las 16 UTC
Viento 15 kt del este-noreste

TAF: LFBY 010800Z 0109/0118 07005KT CAVOK PROB30 TEMPO 0114/0116 06015KT

Observaciones y pronósticos meteorológicos de más de 4000 aeropuertos (mensajes METAR y TAF).

Los puntos amarillos y rojos representan las estaciones disponibles.

Ponga el ratón en el punto deseado para ver el nombre de la estación.

Haga clic para ver las observaciones y los pronósticos meteorológicos.

Para cambiar el mapa : haga clic en los botones verdes con una cruz de color negro para hacer un zoom, en el botón verde con un guión para alejar o en las flechas verdes para mapas adyacentes.


METAR-TAF: